Time;durP1;ratioP1;P1;durP2;ratioP2;P2;SDS_P1;SDS_P2;PMS_P1;PMS_P2;Temp;Humidity;BMP_temperature;BMP_pressure;BME280_temperature;BME280_humidity;BME280_pressure;Samples;Min_cycle;Max_cycle;Signal;HPM_P1;HPM_P2
2022/10/15 00:00:28;;;;;;;70.03;36.83;;;12.20;99.90;;;;;;5118390;27;20505;-65
2022/10/15 00:02:54;;;;;;;66.00;36.38;;;12.20;99.90;;;;;;5135015;27;20118;-65
2022/10/15 00:05:20;;;;;;;56.88;33.63;;;12.20;99.90;;;;;;5153887;27;20078;-65
2022/10/15 00:07:46;;;;;;;57.53;34.13;;;12.20;99.90;;;;;;5135389;27;20049;-65
2022/10/15 00:10:13;;;;;;;66.50;34.72;;;12.20;99.90;;;;;;5135598;27;20417;-66
2022/10/15 00:12:40;;;;;;;69.30;35.47;;;12.20;99.90;;;;;;5154069;27;20078;-65
2022/10/15 00:15:06;;;;;;;62.33;34.90;;;12.20;99.90;;;;;;5118037;27;20039;-65
2022/10/15 00:17:34;;;;;;;58.10;33.58;;;12.20;99.90;;;;;;5135495;27;20041;-66
2022/10/15 00:20:00;;;;;;;63.30;33.42;;;12.20;99.90;;;;;;5133124;27;20034;-65
2022/10/15 00:22:26;;;;;;;63.78;35.78;;;12.20;99.90;;;;;;5135510;27;20094;-66
2022/10/15 00:24:52;;;;;;;62.25;34.47;;;12.20;99.90;;;;;;5154069;27;20034;-64
2022/10/15 00:27:18;;;;;;;58.65;34.13;;;12.20;99.90;;;;;;5153658;27;20110;-65
2022/10/15 00:29:43;;;;;;;67.28;37.45;;;12.20;99.90;;;;;;5117562;27;20047;-64
2022/10/15 00:32:09;;;;;;;64.60;34.95;;;12.20;99.90;;;;;;5153353;27;20043;-64
2022/10/15 00:34:35;;;;;;;56.20;34.17;;;12.20;99.90;;;;;;5135365;27;20050;-64
2022/10/15 00:37:01;;;;;;;63.35;35.50;;;12.20;99.90;;;;;;5153588;27;20566;-64
2022/10/15 00:39:28;;;;;;;63.15;36.22;;;12.20;99.90;;;;;;5134917;27;20117;-64
2022/10/15 00:41:54;;;;;;;59.88;33.67;;;12.20;99.90;;;;;;5134658;27;20055;-65
2022/10/15 00:44:20;;;;;;;63.05;35.03;;;12.20;99.90;;;;;;5134566;27;20038;-65
2022/10/15 00:46:48;;;;;;;57.17;34.35;;;12.20;99.90;;;;;;5134502;27;20084;-65
2022/10/15 00:49:19;;;;;;;61.38;36.63;;;12.20;99.90;;;;;;5132383;27;20463;-65
2022/10/15 00:52:02;;;;;;;62.13;35.97;;;12.20;99.90;;;;;;5133672;27;20391;-65
2022/10/15 00:54:33;;;;;;;64.28;37.00;;;12.20;99.90;;;;;;5134416;27;20533;-65
2022/10/15 00:57:00;;;;;;;60.30;36.15;;;12.20;99.90;;;;;;5134284;27;20039;-65
2022/10/15 00:59:27;;;;;;;59.53;34.35;;;12.20;99.90;;;;;;5117358;27;20042;-65
2022/10/15 01:01:54;;;;;;;57.40;34.20;;;12.20;99.90;;;;;;5117137;27;20562;-65
2022/10/15 01:04:22;;;;;;;56.03;33.90;;;12.20;99.90;;;;;;5152995;27;20390;-65
2022/10/15 01:06:48;;;;;;;62.80;37.00;;;12.20;99.90;;;;;;5134480;27;20045;-65
2022/10/15 01:09:14;;;;;;;64.00;36.35;;;12.20;99.90;;;;;;5117117;27;20422;-65
2022/10/15 01:11:52;;;;;;;64.00;35.30;;;12.20;99.90;;;;;;5134221;27;20121;-65
2022/10/15 01:14:35;;;;;;;56.78;33.88;;;12.20;99.90;;;;;;5134346;27;20103;-64
2022/10/15 01:17:08;;;;;;;56.92;34.65;;;12.30;99.90;;;;;;5133929;27;20053;-64
2022/10/15 01:19:42;;;;;;;54.97;33.50;;;12.20;99.90;;;;;;5131816;27;20042;-64
2022/10/15 01:22:24;;;;;;;57.65;32.58;;;12.30;99.90;;;;;;5133835;27;20031;-64
2022/10/15 01:25:25;;;;;;;58.88;35.50;;;12.30;99.90;;;;;;5133909;27;20046;-64
2022/10/15 01:28:13;;;;;;;53.97;32.67;;;12.30;99.90;;;;;;5131105;27;20066;-64
2022/10/15 01:30:44;;;;;;;52.00;31.67;;;12.30;99.90;;;;;;5112875;27;20126;-64
2022/10/15 01:34:01;;;;;;;59.72;33.50;;;12.30;99.90;;;;;;5113346;27;20487;-64
2022/10/15 01:36:58;;;;;;;50.55;31.98;;;12.30;99.90;;;;;;5074785;27;20517;-64
2022/10/15 01:40:01;;;;;;;53.60;33.33;;;12.30;99.90;;;;;;5131515;27;20066;-64
2022/10/15 01:42:48;;;;;;;54.65;32.33;;;12.30;99.90;;;;;;5112492;27;20054;-64
2022/10/15 01:45:20;;;;;;;54.90;32.90;;;12.30;99.90;;;;;;5131219;27;20035;-64
2022/10/15 01:47:53;;;;;;;52.63;32.28;;;12.30;99.90;;;;;;5131500;27;20517;-64
2022/10/15 01:50:22;;;;;;;50.55;31.08;;;12.30;99.90;;;;;;5111253;27;20039;-64
2022/10/15 01:52:50;;;;;;;55.50;32.63;;;12.30;99.90;;;;;;5095876;27;20203;-64
2022/10/15 01:55:19;;;;;;;54.90;31.40;;;12.30;99.90;;;;;;5112944;27;20101;-64
2022/10/15 01:57:46;;;;;;;58.22;33.17;;;12.30;99.90;;;;;;5112712;27;20035;-63
2022/10/15 02:00:12;;;;;;;54.10;31.58;;;12.30;99.90;;;;;;5112871;27;20475;-63
2022/10/15 02:02:38;;;;;;;57.25;32.40;;;12.30;99.90;;;;;;5095881;27;20354;-63
2022/10/15 02:05:20;;;;;;;57.42;32.20;;;12.30;99.90;;;;;;5112684;27;20347;-64
2022/10/15 02:08:16;;;;;;;51.28;30.95;;;12.30;99.90;;;;;;5095972;28;20436;-64
2022/10/15 02:11:04;;;;;;;47.33;29.83;;;12.30;99.90;;;;;;5111964;27;20049;-64
2022/10/15 02:13:49;;;;;;;51.70;29.63;;;12.30;99.90;;;;;;5112712;27;20035;-65
2022/10/15 02:16:29;;;;;;;48.78;30.42;;;12.30;99.90;;;;;;5131350;27;20035;-66
2022/10/15 02:19:14;;;;;;;52.28;30.88;;;12.30;99.90;;;;;;5110241;28;20126;-64
2022/10/15 02:21:39;;;;;;;49.78;29.95;;;12.30;99.90;;;;;;5112629;28;20042;-64
2022/10/15 02:24:12;;;;;;;58.22;34.65;;;12.30;99.90;;;;;;5112444;27;20130;-64
2022/10/15 02:26:40;;;;;;;47.05;29.23;;;12.20;99.90;;;;;;5112337;28;20099;-64
2022/10/15 02:29:10;;;;;;;48.88;29.90;;;12.20;99.90;;;;;;5130758;28;20039;-64
2022/10/15 02:31:40;;;;;;;57.83;31.95;;;12.20;99.90;;;;;;5130606;27;20103;-64
2022/10/15 02:34:10;;;;;;;52.90;29.08;;;12.20;99.90;;;;;;5112517;28;20090;-63
2022/10/15 02:36:39;;;;;;;51.58;30.10;;;12.20;99.90;;;;;;5112388;28;20070;-64
2022/10/15 02:39:08;;;;;;;56.22;31.50;;;12.20;99.90;;;;;;5130752;28;20069;-63
2022/10/15 02:41:35;;;;;;;51.72;31.38;;;12.20;99.90;;;;;;5112398;28;20327;-63
2022/10/15 02:44:02;;;;;;;57.92;32.35;;;12.20;99.90;;;;;;5112198;28;20043;-64
2022/10/15 02:46:28;;;;;;;48.45;31.23;;;12.20;99.90;;;;;;5112275;28;20051;-64
2022/10/15 02:48:53;;;;;;;51.42;30.67;;;12.20;99.90;;;;;;5109822;28;20095;-63
2022/10/15 02:51:19;;;;;;;53.72;30.80;;;12.20;99.90;;;;;;5112352;28;20050;-64
2022/10/15 02:53:45;;;;;;;59.38;32.53;;;12.20;99.90;;;;;;5095321;28;20583;-64
2022/10/15 02:56:11;;;;;;;61.88;34.63;;;12.20;99.90;;;;;;5130840;28;20043;-64
2022/10/15 02:58:37;;;;;;;53.40;32.08;;;12.20;99.90;;;;;;5095058;28;20153;-64
2022/10/15 03:01:03;;;;;;;58.47;32.88;;;12.20;99.90;;;;;;5112297;28;20039;-65
2022/10/15 03:03:29;;;;;;;62.00;34.65;;;12.20;99.90;;;;;;5112341;28;20414;-65
2022/10/15 03:05:54;;;;;;;57.92;33.15;;;12.20;99.90;;;;;;5130462;28;20099;-65
2022/10/15 03:08:20;;;;;;;54.40;32.08;;;12.20;99.90;;;;;;5112175;28;20499;-66
2022/10/15 03:10:46;;;;;;;59.90;32.10;;;12.10;99.90;;;;;;5111876;28;20047;-66
2022/10/15 03:13:12;;;;;;;58.20;32.85;;;12.10;99.90;;;;;;5130603;28;20035;-66
2022/10/15 03:15:38;;;;;;;59.50;32.40;;;12.10;99.90;;;;;;5114514;27;20456;-66
2022/10/15 03:18:04;;;;;;;56.25;32.25;;;12.10;99.90;;;;;;5131949;27;20054;-66
2022/10/15 03:20:30;;;;;;;60.53;31.30;;;12.10;99.90;;;;;;5115801;27;20224;-66
2022/10/15 03:22:56;;;;;;;58.40;32.10;;;12.10;99.90;;;;;;5134234;27;20035;-66
2022/10/15 03:25:22;;;;;;;59.20;32.10;;;12.10;99.90;;;;;;5115893;27;20050;-66
2022/10/15 03:27:47;;;;;;;61.50;33.92;;;12.00;99.90;;;;;;5134247;27;20039;-66
2022/10/15 03:30:13;;;;;;;63.03;31.67;;;12.00;99.90;;;;;;5133982;27;20292;-66
2022/10/15 03:32:39;;;;;;;58.72;32.95;;;12.00;99.90;;;;;;5115468;27;20095;-66
2022/10/15 03:35:05;;;;;;;55.97;30.05;;;12.00;99.90;;;;;;5098509;27;20122;-66
2022/10/15 03:37:31;;;;;;;59.53;31.88;;;12.00;99.90;;;;;;5115437;27;20042;-66
2022/10/15 03:39:57;;;;;;;68.38;34.00;;;12.00;99.90;;;;;;5115270;27;20035;-66
2022/10/15 03:42:22;;;;;;;58.55;33.28;;;12.00;99.90;;;;;;5115881;27;20046;-66
2022/10/15 03:44:48;;;;;;;55.00;30.05;;;11.90;99.90;;;;;;5114934;27;20491;-66
2022/10/15 03:47:14;;;;;;;59.83;32.35;;;11.90;99.90;;;;;;5133801;27;20118;-66
2022/10/15 03:49:39;;;;;;;63.70;33.83;;;12.00;99.90;;;;;;5112869;27;20123;-66
2022/10/15 03:52:05;;;;;;;64.75;32.92;;;11.90;99.90;;;;;;5115532;27;20036;-68
2022/10/15 03:54:31;;;;;;;65.20;33.60;;;11.90;99.90;;;;;;5115171;27;20047;-66
2022/10/15 03:56:57;;;;;;;62.60;34.97;;;11.90;99.90;;;;;;5133564;27;20043;-67
2022/10/15 03:59:22;;;;;;;69.95;36.00;;;11.90;99.90;;;;;;5115051;27;20113;-66
2022/10/15 04:01:48;;;;;;;70.03;35.67;;;11.90;99.90;;;;;;5115284;27;20035;-69
2022/10/15 04:04:14;;;;;;;71.57;36.92;;;11.90;99.90;;;;;;5114792;27;20615;-69
2022/10/15 04:06:40;;;;;;;66.15;37.72;;;11.90;99.90;;;;;;5115049;27;20058;-70
2022/10/15 04:09:05;;;;;;;71.25;37.78;;;11.90;99.90;;;;;;5114712;27;20074;-69
2022/10/15 04:11:31;;;;;;;75.53;38.60;;;11.90;99.90;;;;;;5133217;27;20035;-68
2022/10/15 04:13:57;;;;;;;70.70;37.03;;;11.90;99.90;;;;;;5114646;27;20581;-69
2022/10/15 04:16:23;;;;;;;88.50;39.53;;;11.90;99.90;;;;;;5134108;27;20035;-69
2022/10/15 04:18:48;;;;;;;70.70;38.50;;;11.90;99.90;;;;;;5113785;27;20035;-70
2022/10/15 04:21:14;;;;;;;82.55;42.10;;;11.90;99.90;;;;;;5134117;27;20082;-71
2022/10/15 04:23:40;;;;;;;80.88;42.75;;;11.90;99.90;;;;;;5116167;27;20072;-68
2022/10/15 04:26:06;;;;;;;80.20;42.83;;;11.90;99.90;;;;;;5134145;27;20039;-67
2022/10/15 04:28:32;;;;;;;85.32;43.53;;;11.90;99.90;;;;;;5134504;27;20083;-69
2022/10/15 04:30:59;;;;;;;89.90;44.55;;;11.80;99.90;;;;;;5145727;27;20138;-67
2022/10/15 04:33:26;;;;;;;87.78;44.60;;;11.90;99.90;;;;;;5135028;27;20405;-67
2022/10/15 04:36:04;;;;;;;85.28;43.67;;;11.90;99.90;;;;;;5153518;27;20078;-68
2022/10/15 04:38:30;;;;;;;89.65;46.13;;;11.90;99.90;;;;;;5134946;27;20031;-67
2022/10/15 04:41:03;;;;;;;93.13;45.88;;;11.90;99.90;;;;;;5153238;27;20041;-67
2022/10/15 04:43:30;;;;;;;93.43;46.58;;;11.90;99.90;;;;;;5134932;27;20420;-69
2022/10/15 04:46:01;;;;;;;99.53;49.40;;;11.90;99.90;;;;;;5134766;27;20387;-67
2022/10/15 04:48:29;;;;;;;91.20;46.60;;;11.90;99.90;;;;;;5150742;27;20102;-67
2022/10/15 04:51:10;;;;;;;91.63;46.47;;;11.90;99.90;;;;;;5117593;27;20038;-68
2022/10/15 04:53:37;;;;;;;98.22;49.67;;;11.90;99.90;;;;;;5134680;27;20509;-68
2022/10/15 04:56:07;;;;;;;99.75;49.40;;;11.90;99.90;;;;;;5152978;27;20047;-67
2022/10/15 04:58:36;;;;;;;100.88;48.38;;;11.90;99.90;;;;;;5152987;27;20038;-67
2022/10/15 05:01:10;;;;;;;106.97;51.95;;;11.90;99.90;;;;;;5152815;27;20035;-67
2022/10/15 05:03:38;;;;;;;101.45;50.03;;;11.80;99.90;;;;;;5152775;27;20046;-67
2022/10/15 05:06:10;;;;;;;101.43;50.13;;;11.90;99.90;;;;;;5134706;27;20134;-67
2022/10/15 05:08:37;;;;;;;116.70;52.13;;;11.90;99.90;;;;;;5134301;27;20042;-67
2022/10/15 05:11:08;;;;;;;109.78;50.28;;;11.90;99.90;;;;;;5152876;27;20035;-67
2022/10/15 05:13:34;;;;;;;108.90;50.20;;;11.90;99.90;;;;;;5116981;27;20490;-67
2022/10/15 05:16:22;;;;;;;103.57;51.13;;;11.90;99.90;;;;;;5116658;27;20054;-67
2022/10/15 05:18:50;;;;;;;110.35;52.30;;;11.90;99.90;;;;;;5131843;27;20520;-67
2022/10/15 05:21:17;;;;;;;106.13;49.80;;;11.90;99.90;;;;;;5152524;27;20043;-67
2022/10/15 05:23:44;;;;;;;115.63;50.88;;;11.90;99.90;;;;;;5133927;27;20070;-67
2022/10/15 05:26:17;;;;;;;104.45;50.67;;;11.90;99.90;;;;;;5134010;27;20393;-67
2022/10/15 05:28:43;;;;;;;116.55;52.20;;;11.90;99.90;;;;;;5134106;27;20115;-66
2022/10/15 05:31:11;;;;;;;109.90;51.72;;;11.90;99.90;;;;;;5133817;27;20470;-67
2022/10/15 05:33:37;;;;;;;111.45;51.53;;;11.90;99.90;;;;;;5116443;27;20046;-67
2022/10/15 05:36:18;;;;;;;105.88;50.85;;;11.90;99.90;;;;;;5133738;27;20095;-67
2022/10/15 05:38:48;;;;;;;122.90;54.75;;;11.90;99.90;;;;;;5151404;27;20030;-66
2022/10/15 05:41:15;;;;;;;112.60;51.75;;;11.90;99.90;;;;;;5133547;27;20483;-67
2022/10/15 05:43:41;;;;;;;113.32;52.78;;;11.90;99.90;;;;;;5133776;27;20034;-67
2022/10/15 05:46:08;;;;;;;118.28;52.05;;;11.90;99.90;;;;;;5133559;27;20046;-66
2022/10/15 05:48:34;;;;;;;109.65;51.72;;;11.90;99.90;;;;;;5149743;27;20042;-67
2022/10/15 05:51:05;;;;;;;115.35;54.15;;;11.90;99.90;;;;;;5133681;27;20042;-66
2022/10/15 05:53:31;;;;;;;110.13;52.88;;;11.90;99.90;;;;;;5151919;27;20070;-67
2022/10/15 05:56:00;;;;;;;109.95;53.42;;;11.90;99.90;;;;;;5133476;27;20128;-67
2022/10/15 05:58:27;;;;;;;116.75;51.90;;;11.90;99.90;;;;;;5133282;27;20035;-67
2022/10/15 06:00:54;;;;;;;119.70;53.47;;;12.00;99.90;;;;;;5116057;27;20561;-68
2022/10/15 06:03:20;;;;;;;130.50;55.58;;;12.00;99.90;;;;;;5151719;27;20077;-70
2022/10/15 06:05:46;;;;;;;120.75;53.40;;;12.00;99.90;;;;;;5151745;27;20074;-70
2022/10/15 06:08:11;;;;;;;127.82;55.13;;;12.00;99.90;;;;;;5133309;27;20046;-73
2022/10/15 06:10:37;;;;;;;121.93;53.70;;;12.00;99.90;;;;;;5151933;27;20313;-70
2022/10/15 06:13:04;;;;;;;119.20;52.47;;;12.00;99.90;;;;;;5151642;27;20057;-71
2022/10/15 06:15:30;;;;;;;114.55;53.03;;;12.00;99.90;;;;;;5133123;27;20563;-71
2022/10/15 06:17:56;;;;;;;133.43;57.40;;;12.00;99.90;;;;;;5151650;27;20038;-70
2022/10/15 06:20:22;;;;;;;120.03;55.13;;;12.00;99.90;;;;;;5130758;27;20093;-70
2022/10/15 06:22:47;;;;;;;113.57;52.55;;;12.10;99.90;;;;;;5151943;27;20039;-69
2022/10/15 06:25:13;;;;;;;113.88;52.30;;;12.10;99.90;;;;;;5151589;27;20034;-70
2022/10/15 06:27:42;;;;;;;128.35;56.75;;;12.10;99.90;;;;;;5142232;27;20116;-70
2022/10/15 06:30:08;;;;;;;117.95;53.70;;;12.10;99.90;;;;;;5130430;28;20052;-69
2022/10/15 06:32:34;;;;;;;117.60;53.58;;;12.10;99.90;;;;;;5113036;28;20723;-69
2022/10/15 06:35:00;;;;;;;122.85;53.17;;;12.10;99.90;;;;;;5113287;28;20081;-69
2022/10/15 06:37:28;;;;;;;112.50;52.67;;;12.20;99.90;;;;;;5131869;28;20084;-70
2022/10/15 06:39:54;;;;;;;110.20;52.47;;;12.10;99.90;;;;;;5113305;28;20039;-72
2022/10/15 06:42:20;;;;;;;117.32;53.70;;;12.20;99.90;;;;;;5131858;28;20122;-70
2022/10/15 06:44:46;;;;;;;116.15;52.63;;;12.20;99.90;;;;;;5130584;27;20101;-69
2022/10/15 06:47:12;;;;;;;111.60;51.97;;;12.20;99.90;;;;;;5113298;28;20043;-69
2022/10/15 06:49:38;;;;;;;104.35;50.15;;;12.20;99.90;;;;;;5106061;27;20035;-71
2022/10/15 06:52:04;;;;;;;113.70;50.63;;;12.20;99.90;;;;;;5134638;27;20041;-69
2022/10/15 06:54:29;;;;;;;122.97;54.55;;;12.20;99.90;;;;;;5116394;27;20039;-70
2022/10/15 06:56:55;;;;;;;115.30;54.50;;;12.30;99.90;;;;;;5134539;27;20573;-69
2022/10/15 06:59:21;;;;;;;118.68;53.25;;;12.30;99.90;;;;;;5134685;27;20114;-69
2022/10/15 07:01:47;;;;;;;101.90;51.85;;;12.30;99.90;;;;;;5134586;27;20110;-69
2022/10/15 07:04:12;;;;;;;102.15;49.85;;;12.30;99.90;;;;;;5116048;27;20039;-69
2022/10/15 07:06:39;;;;;;;102.72;51.72;;;12.40;99.90;;;;;;5099140;27;20039;-70
2022/10/15 07:09:05;;;;;;;102.43;48.95;;;12.40;99.90;;;;;;5134384;27;20035;-69
2022/10/15 07:11:31;;;;;;;105.07;51.90;;;12.40;99.90;;;;;;5134509;27;20266;-70
2022/10/15 07:13:57;;;;;;;98.32;49.00;;;12.40;99.90;;;;;;5116154;27;20082;-69
2022/10/15 07:16:23;;;;;;;101.30;51.70;;;12.40;99.90;;;;;;5134645;27;20046;-70
2022/10/15 07:18:49;;;;;;;94.85;48.97;;;12.40;99.90;;;;;;5131933;27;20113;-70
2022/10/15 07:21:14;;;;;;;98.35;49.45;;;12.40;99.90;;;;;;5134095;27;20118;-70
2022/10/15 07:23:40;;;;;;;102.20;48.08;;;12.50;99.90;;;;;;5115503;27;20042;-71
2022/10/15 07:26:06;;;;;;;98.80;50.22;;;12.50;99.90;;;;;;5134026;27;20042;-69
2022/10/15 07:28:32;;;;;;;106.35;51.60;;;12.50;99.90;;;;;;5115941;27;20125;-69
2022/10/15 07:31:03;;;;;;;101.90;50.28;;;12.50;99.90;;;;;;5113637;27;20087;-68
2022/10/15 07:33:30;;;;;;;110.32;52.72;;;12.60;99.90;;;;;;5115142;27;20047;-69
2022/10/15 07:35:55;;;;;;;101.88;50.55;;;12.60;99.90;;;;;;5113883;27;20050;-69
2022/10/15 07:38:23;;;;;;;101.30;50.10;;;12.60;99.90;;;;;;5116427;27;20051;-68
2022/10/15 07:40:49;;;;;;;103.97;50.25;;;12.70;99.90;;;;;;5114375;27;20040;-67
2022/10/15 07:43:15;;;;;;;135.02;55.67;;;12.70;99.90;;;;;;5113623;28;20509;-67
2022/10/15 07:45:46;;;;;;;114.65;51.83;;;12.70;99.90;;;;;;5113473;28;20046;-68
2022/10/15 07:48:12;;;;;;;116.53;51.60;;;12.70;99.90;;;;;;5128338;27;20035;-68
2022/10/15 07:50:38;;;;;;;118.40;53.30;;;12.70;99.90;;;;;;5135413;27;20410;-67
2022/10/15 07:53:04;;;;;;;112.38;50.03;;;12.70;99.90;;;;;;5135425;27;20068;-68
2022/10/15 07:55:29;;;;;;;124.97;52.97;;;12.70;99.90;;;;;;5133771;27;20043;-67
2022/10/15 07:57:57;;;;;;;131.93;52.95;;;12.80;99.90;;;;;;5116819;27;20043;-68
2022/10/15 08:00:23;;;;;;;127.45;53.08;;;12.80;99.90;;;;;;5133304;27;20035;-67
2022/10/15 08:02:49;;;;;;;117.85;50.80;;;12.80;99.90;;;;;;5133381;27;20568;-68
2022/10/15 08:05:14;;;;;;;125.15;52.85;;;12.80;99.90;;;;;;5133960;27;20042;-67
2022/10/15 08:07:43;;;;;;;122.97;53.58;;;12.80;99.90;;;;;;5135007;27;20451;-67
2022/10/15 08:10:12;;;;;;;121.80;53.05;;;12.80;99.90;;;;;;5133410;27;20046;-67
2022/10/15 08:12:38;;;;;;;122.75;51.95;;;12.80;99.90;;;;;;5133463;27;20047;-67
2022/10/15 08:15:04;;;;;;;136.77;54.22;;;12.80;99.90;;;;;;5133525;27;20042;-68
2022/10/15 08:17:31;;;;;;;131.20;51.55;;;12.80;99.90;;;;;;5133666;27;20039;-68
2022/10/15 08:19:57;;;;;;;122.57;50.58;;;12.80;99.90;;;;;;5132325;27;20474;-68
2022/10/15 08:22:22;;;;;;;125.03;51.90;;;12.80;99.90;;;;;;5133315;27;20095;-67
2022/10/15 08:24:49;;;;;;;103.80;48.80;;;12.80;99.90;;;;;;5133308;27;20042;-69
2022/10/15 08:27:14;;;;;;;99.70;46.33;;;12.80;99.90;;;;;;5116463;27;20066;-69
2022/10/15 08:29:40;;;;;;;97.03;43.25;;;12.80;99.90;;;;;;5133550;27;20501;-67
2022/10/15 08:32:06;;;;;;;107.72;45.70;;;12.80;99.90;;;;;;5097878;27;20440;-66
2022/10/15 08:34:32;;;;;;;103.78;47.03;;;12.90;99.90;;;;;;5114621;27;20043;-67
2022/10/15 08:36:57;;;;;;;101.38;46.40;;;12.90;99.90;;;;;;5132829;27;20399;-67
2022/10/15 08:39:23;;;;;;;76.57;39.08;;;12.90;99.90;;;;;;5132981;27;20513;-67
2022/10/15 08:41:59;;;;;;;82.88;41.80;;;12.90;99.90;;;;;;5114531;27;20043;-66
2022/10/15 08:44:33;;;;;;;93.40;43.83;;;12.90;99.90;;;;;;5114117;27;20038;-68
2022/10/15 08:47:08;;;;;;;95.28;45.00;;;12.90;99.90;;;;;;5114134;27;20035;-66
2022/10/15 08:49:54;;;;;;;85.60;41.72;;;12.90;99.90;;;;;;5111859;27;20298;-66
2022/10/15 08:52:23;;;;;;;70.97;36.67;;;12.90;99.90;;;;;;5132215;27;20070;-66
2022/10/15 08:54:50;;;;;;;66.60;34.33;;;12.90;99.90;;;;;;5132369;27;20041;-66
2022/10/15 08:57:20;;;;;;;72.55;36.75;;;13.00;99.90;;;;;;5132254;27;20042;-66
2022/10/15 09:00:11;;;;;;;67.97;33.65;;;13.00;99.90;;;;;;5132496;27;20450;-67
2022/10/15 09:03:01;;;;;;;61.38;31.83;;;12.90;99.90;;;;;;5120393;27;20045;-66
2022/10/15 09:05:50;;;;;;;62.88;32.22;;;13.00;99.90;;;;;;5134355;27;20122;-67
2022/10/15 09:08:21;;;;;;;56.53;28.67;;;13.00;99.90;;;;;;5117233;27;20049;-66
2022/10/15 09:11:20;;;;;;;58.00;29.17;;;13.00;99.90;;;;;;5134192;27;20481;-66
2022/10/15 09:13:47;;;;;;;59.42;28.75;;;13.10;99.90;;;;;;5115303;27;20127;-67
2022/10/15 09:16:20;;;;;;;56.70;30.02;;;13.10;99.90;;;;;;5153088;27;20521;-67
2022/10/15 09:18:51;;;;;;;64.95;32.38;;;13.20;99.90;;;;;;5131644;27;20050;-66
2022/10/15 09:21:17;;;;;;;;;;;13.20;99.90;;;;;;5134830;27;20050;-66
2022/10/15 09:23:43;;;;;;;57.78;29.98;;;13.20;99.90;;;;;;5152169;27;19915;-66
2022/10/15 09:26:17;;;;;;;54.25;28.65;;;13.20;99.90;;;;;;5133786;27;20137;-66
2022/10/15 09:29:21;;;;;;;49.25;24.35;;;13.30;99.90;;;;;;5133893;27;20042;-66
2022/10/15 09:31:57;;;;;;;48.70;26.10;;;13.40;99.90;;;;;;5120520;27;20047;-68
2022/10/15 09:34:34;;;;;;;46.25;26.70;;;13.30;99.90;;;;;;5152321;27;20103;-67
2022/10/15 09:37:06;;;;;;;51.53;26.67;;;13.40;99.90;;;;;;5152328;27;20047;-66
2022/10/15 09:39:56;;;;;;;46.83;25.08;;;13.30;99.90;;;;;;5116562;27;20035;-67
2022/10/15 09:42:36;;;;;;;43.60;23.42;;;13.30;99.90;;;;;;5133827;27;20119;-66
2022/10/15 09:45:04;;;;;;;;;;;13.30;99.90;;;;;;5134166;27;20513;-66
2022/10/15 09:47:34;;;;;;;36.25;20.10;;;13.30;99.90;;;;;;5133878;27;19998;-66
2022/10/15 09:50:02;;;;;;;37.17;19.10;;;13.30;99.90;;;;;;5131437;27;20507;-65
2022/10/15 09:53:05;;;;;;;35.58;19.52;;;13.30;99.90;;;;;;5133612;27;20046;-66
2022/10/15 09:55:52;;;;;;;30.15;17.77;;;13.50;99.90;;;;;;5133223;27;20081;-65
2022/10/15 09:58:26;;;;;;;32.08;18.55;;;13.50;99.90;;;;;;5133320;27;20121;-66
2022/10/15 10:00:54;;;;;;;31.40;18.77;;;13.50;99.90;;;;;;5133560;27;20039;-66
2022/10/15 10:03:22;;;;;;;29.90;18.70;;;13.60;99.90;;;;;;5133287;27;20031;-65
2022/10/15 10:05:49;;;;;;;32.58;17.90;;;13.60;99.90;;;;;;5133435;27;20126;-65
2022/10/15 10:08:23;;;;;;;31.98;17.80;;;13.70;99.90;;;;;;5133376;27;20046;-66
2022/10/15 10:10:54;;;;;;;30.77;17.30;;;13.80;99.90;;;;;;5133483;27;20030;-66
2022/10/15 10:13:27;;;;;;;28.23;16.50;;;13.90;99.90;;;;;;5133171;27;20073;-66
2022/10/15 10:15:55;;;;;;;26.08;15.18;;;14.00;99.90;;;;;;5133051;27;20031;-66
2022/10/15 10:18:23;;;;;;;28.30;15.90;;;14.10;99.90;;;;;;5130610;27;20328;-66
2022/10/15 10:21:01;;;;;;;24.35;15.30;;;14.20;99.90;;;;;;5133028;27;20117;-66
2022/10/15 10:23:38;;;;;;;26.50;15.90;;;14.30;99.90;;;;;;5151642;27;20043;-65
2022/10/15 10:26:09;;;;;;;22.25;14.70;;;14.40;99.90;;;;;;5151664;27;20042;-66
2022/10/15 10:28:48;;;;;;;25.25;14.73;;;14.50;99.90;;;;;;5152000;27;20133;-67
2022/10/15 10:31:14;;;;;;;25.15;14.98;;;14.50;99.90;;;;;;5132689;27;20410;-66
2022/10/15 10:33:51;;;;;;;20.00;13.48;;;14.60;99.90;;;;;;5151643;27;20043;-65
2022/10/15 10:36:29;;;;;;;19.75;13.10;;;14.60;99.90;;;;;;5132783;27;20088;-65
2022/10/15 10:39:23;;;;;;;18.35;13.25;;;14.60;99.90;;;;;;5132919;27;20568;-66
2022/10/15 10:42:23;;;;;;;19.02;12.25;;;14.60;99.90;;;;;;5127847;27;20034;-65
2022/10/15 10:44:48;;;;;;;18.30;12.20;;;14.60;99.90;;;;;;5151406;27;20130;-66
2022/10/15 10:47:17;;;;;;;20.75;13.02;;;14.60;99.90;;;;;;5132832;27;20180;-65
2022/10/15 10:49:57;;;;;;;19.65;12.68;;;14.60;99.90;;;;;;5130327;27;20076;-66
2022/10/15 10:52:22;;;;;;;18.88;13.02;;;14.60;99.90;;;;;;5133005;27;20066;-66
2022/10/15 10:55:19;;;;;;;19.52;12.13;;;14.70;99.90;;;;;;5132646;27;20077;-65
2022/10/15 10:57:53;;;;;;;17.83;11.50;;;14.70;99.90;;;;;;5124354;27;20050;-66
2022/10/15 11:00:26;;;;;;;16.23;11.55;;;14.80;99.90;;;;;;5151106;27;20096;-66
2022/10/15 11:02:52;;;;;;;18.52;12.73;;;14.90;99.90;;;;;;5132731;27;20046;-65
2022/10/15 11:05:25;;;;;;;18.20;12.25;;;15.00;99.90;;;;;;5151285;27;20091;-66
2022/10/15 11:08:11;;;;;;;17.15;11.65;;;15.00;99.90;;;;;;5115509;27;20037;-66
2022/10/15 11:10:47;;;;;;;19.50;13.75;;;15.10;99.90;;;;;;5151000;27;20042;-66
2022/10/15 11:13:50;;;;;;;18.48;12.75;;;15.20;99.90;;;;;;5132263;27;20096;-65
2022/10/15 11:16:32;;;;;;;17.20;11.55;;;15.30;99.90;;;;;;5132040;27;20558;-66
2022/10/15 11:19:06;;;;;;;16.50;11.65;;;15.50;99.90;;;;;;5113029;27;20043;-66
2022/10/15 11:22:03;;;;;;;17.38;11.68;;;15.60;99.90;;;;;;5132433;27;20038;-67
2022/10/15 11:24:39;;;;;;;18.00;12.38;;;15.60;99.90;;;;;;5132378;27;20042;-66
2022/10/15 11:27:30;;;;;;;19.17;12.32;;;15.60;99.90;;;;;;5132338;27;20039;-66
2022/10/15 11:30:03;;;;;;;16.58;10.88;;;15.60;99.90;;;;;;5146799;27;20145;-66
2022/10/15 11:33:24;;;;;;;14.35;10.95;;;15.60;99.90;;;;;;5130435;28;20043;-67
2022/10/15 11:36:14;;;;;;;14.95;9.55;;;15.60;99.90;;;;;;5027628;28;20049;-68
2022/10/15 11:38:58;;;;;;;14.55;10.60;;;15.60;99.90;;;;;;5098449;27;20492;-65
2022/10/15 11:41:49;;;;;;;19.20;12.55;;;15.50;99.90;;;;;;5115607;27;20065;-65
2022/10/15 11:44:45;;;;;;;17.17;12.52;;;15.50;99.90;;;;;;5115620;27;20108;-65
2022/10/15 11:47:42;;;;;;;15.35;11.88;;;15.50;99.90;;;;;;5115229;27;20035;-66
2022/10/15 11:50:29;;;;;;;16.33;11.40;;;15.50;99.90;;;;;;5131197;27;20094;-68
2022/10/15 11:53:19;;;;;;;20.17;13.55;;;15.40;99.90;;;;;;5098157;27;20043;-66
2022/10/15 11:56:00;;;;;;;19.48;12.98;;;15.30;99.90;;;;;;5098085;27;20077;-66
2022/10/15 11:58:49;;;;;;;21.80;13.90;;;15.20;99.90;;;;;;5115095;27;20035;-65
2022/10/15 12:01:36;;;;;;;21.92;13.43;;;15.10;99.90;;;;;;5115325;27;20408;-66
2022/10/15 12:04:09;;;;;;;23.40;15.23;;;15.00;99.90;;;;;;5133504;27;20118;-66
2022/10/15 12:06:40;;;;;;;21.88;13.63;;;15.00;99.90;;;;;;5097864;27;20293;-70
2022/10/15 12:09:10;;;;;;;24.08;15.60;;;15.00;99.90;;;;;;5114845;27;20239;-67
2022/10/15 12:11:58;;;;;;;;;;;14.90;99.90;;;;;;5133962;27;20100;-70
2022/10/15 12:14:47;;;;;;;30.23;17.48;;;14.90;99.90;;;;;;5098012;27;19915;-67
2022/10/15 12:17:29;;;;;;;24.00;14.98;;;14.80;99.90;;;;;;5097759;27;20080;-67
2022/10/15 12:20:10;;;;;;;28.58;17.20;;;14.80;99.90;;;;;;5130617;27;20031;-67
2022/10/15 12:22:57;;;;;;;29.15;17.50;;;14.80;99.90;;;;;;5133376;27;20041;-66
2022/10/15 12:25:36;;;;;;;26.45;15.85;;;14.70;99.90;;;;;;5132980;27;20123;-67
2022/10/15 12:28:11;;;;;;;29.90;17.85;;;14.70;99.90;;;;;;5132799;27;20042;-67
2022/10/15 12:30:37;;;;;;;33.42;17.98;;;14.70;99.90;;;;;;5124374;27;20050;-65
2022/10/15 12:33:20;;;;;;;32.72;17.85;;;14.70;99.90;;;;;;5118119;27;20045;-66
2022/10/15 12:36:01;;;;;;;33.20;18.58;;;14.70;99.90;;;;;;5134837;27;20502;-66
2022/10/15 12:38:34;;;;;;;30.27;17.00;;;14.70;99.90;;;;;;5135150;27;20418;-65
2022/10/15 12:41:05;;;;;;;35.28;18.88;;;14.70;99.90;;;;;;5134828;27;20074;-65
2022/10/15 12:43:33;;;;;;;32.22;17.52;;;14.60;99.90;;;;;;5134761;27;20046;-66
2022/10/15 12:46:01;;;;;;;32.25;17.75;;;14.70;99.90;;;;;;5134912;27;20117;-65
2022/10/15 12:48:52;;;;;;;34.85;18.35;;;14.80;99.90;;;;;;5115234;27;20161;-65